Time;durP1;ratioP1;P1;durP2;ratioP2;P2;SDS_P1;SDS_P2;PMS_P1;PMS_P2;Temp;Humidity;BMP_temperature;BMP_pressure;BME280_temperature;BME280_humidity;BME280_pressure;Samples;Min_cycle;Max_cycle;Signal;HPM_P1;HPM_P2
2023/03/30 00:01:16;;;;;;;20.55;8.90;;;;;;;;;;5099952;28;20107;-87
2023/03/30 00:03:43;;;;;;;20.83;9.35;;;;;;;;;;5098826;28;20428;-88
2023/03/30 00:06:09;;;;;;;17.52;8.60;;;;;;;;;;5099884;28;20402;-88
2023/03/30 00:08:36;;;;;;;18.70;8.70;;;;;;;;;;5099415;28;20047;-88
2023/03/30 00:11:39;;;;;;;17.83;8.80;;;;;;;;;;5099398;28;20040;-86
2023/03/30 00:14:05;;;;;;;18.58;8.80;;;;;;;;;;5099370;28;20024;-88
2023/03/30 00:16:31;;;;;;;19.55;8.82;;;;;;;;;;5098553;28;20410;-87
2023/03/30 00:18:57;;;;;;;17.35;8.75;;;;;;;;;;5098169;28;20127;-87
2023/03/30 00:21:23;;;;;;;15.05;7.70;;;;;;;;;;5098182;28;20059;-87
2023/03/30 00:23:51;;;;;;;14.52;8.00;;;;;;;;;;5098295;28;20020;-86
2023/03/30 00:26:17;;;;;;;23.45;11.38;;;;;;;;;;5099441;28;20016;-88
2023/03/30 00:28:43;;;;;;;28.75;13.52;;;;;;;;;;5099310;28;20394;-88
2023/03/30 00:31:10;;;;;;;34.08;15.95;;;;;;;;;;5099054;28;20120;-86
2023/03/30 00:33:36;;;;;;;37.67;16.17;;;;;;;;;;5099236;28;20020;-87
2023/03/30 00:36:02;;;;;;;29.05;13.43;;;;;;;;;;5099040;28;20025;-87
2023/03/30 00:38:28;;;;;;;28.00;14.38;;;;;;;;;;5098781;28;20031;-87
2023/03/30 00:40:59;;;;;;;27.92;12.32;;;;;;;;;;5098702;28;20038;-87
2023/03/30 00:43:25;;;;;;;28.05;13.13;;;;;;;;;;5097259;28;20042;-87
2023/03/30 00:45:52;;;;;;;24.42;12.48;;;;;;;;;;5099000;28;20100;-87
2023/03/30 00:48:18;;;;;;;22.63;11.88;;;;;;;;;;5098994;28;20016;-88
2023/03/30 00:50:45;;;;;;;25.13;11.57;;;;;;;;;;5098912;28;20364;-86
2023/03/30 00:53:16;;;;;;;19.70;10.95;;;;;;;;;;5097804;28;20042;-87
2023/03/30 00:56:02;;;;;;;26.63;13.00;;;;;;;;;;5097997;28;20034;-87
2023/03/30 00:58:30;;;;;;;25.67;13.32;;;;;;;;;;5098759;28;20105;-88
2023/03/30 01:00:57;;;;;;;25.80;12.80;;;;;;;;;;5098760;28;20054;-87
2023/03/30 01:03:26;;;;;;;27.45;14.10;;;;;;;;;;5097162;28;20028;-87
2023/03/30 01:05:53;;;;;;;24.67;12.73;;;;;;;;;;5097484;28;20035;-88
2023/03/30 01:08:22;;;;;;;26.23;13.13;;;;;;;;;;5097734;28;20066;-87
2023/03/30 01:10:49;;;;;;;20.65;11.75;;;;;;;;;;5098788;28;20055;-87
2023/03/30 01:13:15;;;;;;;26.38;13.25;;;;;;;;;;5098460;28;20035;-88
2023/03/30 01:16:02;;;;;;;22.20;11.68;;;;;;;;;;5098552;28;20047;-87
2023/03/30 01:18:35;;;;;;;21.02;11.43;;;;;;;;;;5016607;28;20100;-87
2023/03/30 01:21:10;;;;;;;22.63;12.15;;;;;;;;;;5016706;28;20041;-87
2023/03/30 01:23:51;;;;;;;23.75;12.05;;;;;;;;;;5016513;28;20034;-87
2023/03/30 01:29:28;;;;;;;26.55;14.07;;;;;;;;;;5016854;28;20072;-87
2023/03/30 01:32:19;;;;;;;27.73;14.65;;;;;;;;;;5016684;28;20026;-88
2023/03/30 01:34:50;;;;;;;24.20;12.40;;;;;;;;;;5016271;28;20030;-87
2023/03/30 01:37:35;;;;;;;24.42;12.55;;;;;;;;;;5016388;28;20058;-87
2023/03/30 01:40:08;;;;;;;25.20;12.35;;;;;;;;;;5016364;28;20053;-88
2023/03/30 01:42:41;;;;;;;23.95;12.02;;;;;;;;;;5016375;28;20053;-88
2023/03/30 01:45:10;;;;;;;23.60;12.60;;;;;;;;;;5016369;28;20113;-88
2023/03/30 01:47:38;;;;;;;25.98;12.93;;;;;;;;;;5016359;28;20028;-88
2023/03/30 01:50:08;;;;;;;20.85;12.43;;;;;;;;;;5000102;28;20321;-88
2023/03/30 01:52:39;;;;;;;23.15;12.27;;;;;;;;;;5016300;28;20022;-87
2023/03/30 01:55:06;;;;;;;23.13;11.52;;;;;;;;;;5042666;28;20055;-89
2023/03/30 01:57:52;;;;;;;21.35;11.50;;;;;;;;;;5096779;28;20059;-88
2023/03/30 02:00:21;;;;;;;15.02;10.13;;;;;;;;;;5097884;28;20403;-88
2023/03/30 02:02:51;;;;;;;18.08;9.75;;;;;;;;;;5097639;28;20437;-87
2023/03/30 02:05:19;;;;;;;17.88;9.50;;;;;;;;;;5097691;28;20020;-87
2023/03/30 02:07:49;;;;;;;18.63;9.98;;;;;;;;;;5097732;28;20024;-89
2023/03/30 02:16:26;;;;;;;18.70;9.70;;;;;;;;;;5097839;28;20093;-89
2023/03/30 02:18:53;;;;;;;19.48;11.15;;;;;;;;;;5098003;28;20462;-88
2023/03/30 02:21:19;;;;;;;21.20;10.57;;;;;;;;;;5101804;28;20028;-88
2023/03/30 02:23:46;;;;;;;20.17;10.60;;;;;;;;;;5101841;28;20016;-88
2023/03/30 02:29:16;;;;;;;15.95;9.80;;;;;;;;;;5101871;28;20030;-88
2023/03/30 02:31:42;;;;;;;17.98;10.50;;;;;;;;;;5101721;28;20020;-88
2023/03/30 02:34:15;;;;;;;16.52;9.70;;;;;;;;;;5100726;28;20110;-89
2023/03/30 02:36:41;;;;;;;;;;;;;;;;;;5100630;28;20024;-88
2023/03/30 02:39:07;;;;;;;21.33;9.93;;;;;;;;;;5101217;28;19915;-88
2023/03/30 02:44:48;;;;;;;22.67;11.55;;;;;;;;;;5090824;28;20048;-88
2023/03/30 02:47:14;;;;;;;25.95;11.95;;;;;;;;;;5101480;28;20043;-88
2023/03/30 02:49:59;;;;;;;26.35;13.48;;;;;;;;;;5101409;28;20027;-89
2023/03/30 02:52:36;;;;;;;21.38;12.85;;;;;;;;;;5100966;28;20405;-88
2023/03/30 02:55:12;;;;;;;23.45;13.05;;;;;;;;;;5101226;28;20327;-87
2023/03/30 02:57:45;;;;;;;21.25;11.85;;;;;;;;;;5101144;28;20035;-89
2023/03/30 03:00:16;;;;;;;21.08;12.70;;;;;;;;;;5100641;28;20020;-87
2023/03/30 03:02:44;;;;;;;23.20;12.77;;;;;;;;;;5100973;28;20061;-87
2023/03/30 03:05:13;;;;;;;25.60;13.10;;;;;;;;;;5099680;28;20036;-88
2023/03/30 03:07:40;;;;;;;25.65;12.80;;;;;;;;;;5100721;28;20024;-87
2023/03/30 03:10:06;;;;;;;27.48;13.90;;;;;;;;;;5100567;28;20027;-87
2023/03/30 03:12:32;;;;;;;22.08;12.38;;;;;;;;;;5100889;28;20059;-87
2023/03/30 03:15:00;;;;;;;20.85;12.00;;;;;;;;;;5100476;28;20032;-87
2023/03/30 03:17:33;;;;;;;21.30;11.63;;;;;;;;;;5100883;28;20055;-88
2023/03/30 03:20:00;;;;;;;21.55;10.82;;;;;;;;;;5099759;28;20483;-88
2023/03/30 03:22:26;;;;;;;19.73;11.57;;;;;;;;;;5100750;28;20020;-87
2023/03/30 03:24:52;;;;;;;18.35;10.48;;;;;;;;;;5100360;28;20033;-88
2023/03/30 03:27:18;;;;;;;24.85;11.50;;;;;;;;;;5100306;28;20055;-87
2023/03/30 03:29:44;;;;;;;21.15;10.70;;;;;;;;;;5099318;28;20024;-88
2023/03/30 03:32:10;;;;;;;20.05;10.48;;;;;;;;;;5116251;28;20023;-87
2023/03/30 03:34:38;;;;;;;18.80;10.45;;;;;;;;;;5102266;28;20035;-88
2023/03/30 03:37:04;;;;;;;22.73;11.90;;;;;;;;;;5120607;28;20028;-88
2023/03/30 03:39:31;;;;;;;20.92;11.57;;;;;;;;;;5120011;28;20119;-88
2023/03/30 03:41:57;;;;;;;20.73;11.80;;;;;;;;;;5120377;28;20028;-89
2023/03/30 03:44:23;;;;;;;22.50;12.07;;;;;;;;;;5120221;28;20081;-88
2023/03/30 03:46:49;;;;;;;21.15;11.65;;;;;;;;;;5120807;28;20024;-88
2023/03/30 03:49:15;;;;;;;22.17;11.52;;;;;;;;;;5120604;28;20020;-87
2023/03/30 03:51:41;;;;;;;22.17;11.73;;;;;;;;;;5120587;28;20053;-87
2023/03/30 03:54:07;;;;;;;19.30;10.98;;;;;;;;;;5120195;28;20024;-87
2023/03/30 03:56:33;;;;;;;17.90;10.05;;;;;;;;;;5102160;28;20024;-88
2023/03/30 03:59:02;;;;;;;18.05;10.40;;;;;;;;;;5102227;28;20318;-87
2023/03/30 04:01:28;;;;;;;19.90;11.38;;;;;;;;;;5120438;28;20032;-88
2023/03/30 04:03:55;;;;;;;17.95;10.95;;;;;;;;;;5102216;28;20020;-87
2023/03/30 04:06:21;;;;;;;18.75;11.23;;;;;;;;;;5120672;28;20028;-87
2023/03/30 04:08:47;;;;;;;21.10;10.90;;;;;;;;;;5101849;28;20537;-88
2023/03/30 04:11:13;;;;;;;16.60;10.25;;;;;;;;;;5101834;28;20440;-88
2023/03/30 04:13:39;;;;;;;17.55;9.80;;;;;;;;;;5119822;28;20038;-88
2023/03/30 04:16:06;;;;;;;23.40;11.77;;;;;;;;;;5119935;28;20058;-88
2023/03/30 04:18:32;;;;;;;19.95;11.25;;;;;;;;;;5120087;28;20409;-88
2023/03/30 04:21:11;;;;;;;19.75;11.32;;;;;;;;;;5102117;28;20032;-89
2023/03/30 04:23:38;;;;;;;20.27;10.77;;;;;;;;;;5101189;28;20076;-87
2023/03/30 04:26:06;;;;;;;21.33;10.70;;;;;;;;;;5119464;28;20026;-88
2023/03/30 04:28:33;;;;;;;20.65;10.27;;;;;;;;;;5119555;28;20020;-87
2023/03/30 04:31:00;;;;;;;18.60;11.30;;;;;;;;;;5119451;28;20101;-89
2023/03/30 04:33:27;;;;;;;23.30;12.13;;;;;;;;;;5119577;28;20035;-88
2023/03/30 04:35:53;;;;;;;23.42;13.13;;;;;;;;;;5119391;28;20032;-88
2023/03/30 04:38:22;;;;;;;24.60;12.23;;;;;;;;;;5119567;28;20076;-87
2023/03/30 04:40:51;;;;;;;25.35;14.18;;;;;;;;;;5119564;28;20036;-88
2023/03/30 04:43:21;;;;;;;17.48;11.18;;;;;;;;;;5101209;28;20050;-88
2023/03/30 04:45:51;;;;;;;16.35;10.18;;;;;;;;;;5119055;28;20433;-89
2023/03/30 04:48:18;;;;;;;15.65;10.43;;;;;;;;;;5100584;28;20413;-88
2023/03/30 04:50:45;;;;;;;17.83;10.35;;;;;;;;;;5119116;28;20030;-88
2023/03/30 04:53:11;;;;;;;19.67;10.88;;;;;;;;;;5119307;28;20044;-87
2023/03/30 04:55:37;;;;;;;19.42;9.90;;;;;;;;;;5119360;28;20024;-88
2023/03/30 04:58:03;;;;;;;19.80;10.80;;;;;;;;;;5119429;28;20031;-87
2023/03/30 05:00:29;;;;;;;17.98;11.48;;;;;;;;;;5119177;28;20053;-89
2023/03/30 05:02:55;;;;;;;17.20;9.98;;;;;;;;;;5119033;28;20016;-88
2023/03/30 05:05:21;;;;;;;19.73;10.43;;;;;;;;;;5100962;28;20429;-88
2023/03/30 05:07:47;;;;;;;17.00;10.48;;;;;;;;;;5100217;28;20027;-88
2023/03/30 05:10:14;;;;;;;17.45;9.60;;;;;;;;;;5100920;28;20027;-88
2023/03/30 05:12:40;;;;;;;18.10;10.38;;;;;;;;;;5100080;28;20080;-87
2023/03/30 05:15:07;;;;;;;18.75;10.80;;;;;;;;;;5101297;28;20024;-87
2023/03/30 05:17:33;;;;;;;16.95;9.18;;;;;;;;;;5119052;28;20073;-88
2023/03/30 05:19:59;;;;;;;15.45;9.82;;;;;;;;;;5100756;28;20060;-88
2023/03/30 05:22:26;;;;;;;16.73;9.52;;;;;;;;;;5100576;28;20096;-88
2023/03/30 05:24:52;;;;;;;15.75;9.82;;;;;;;;;;5100536;28;20413;-87
2023/03/30 05:27:36;;;;;;;19.27;10.57;;;;;;;;;;5100562;28;20322;-88
2023/03/30 05:30:02;;;;;;;19.38;10.07;;;;;;;;;;5118657;28;20023;-87
2023/03/30 05:32:29;;;;;;;22.27;10.38;;;;;;;;;;5118460;28;20055;-87
2023/03/30 05:34:55;;;;;;;18.30;10.38;;;;;;;;;;5118691;28;20036;-86
2023/03/30 05:37:21;;;;;;;19.45;10.90;;;;;;;;;;5118494;28;20023;-87
2023/03/30 05:39:47;;;;;;;16.13;9.40;;;;;;;;;;5118186;28;20023;-86
2023/03/30 05:42:14;;;;;;;16.08;9.88;;;;;;;;;;5118447;28;20032;-87
2023/03/30 05:44:40;;;;;;;18.52;10.57;;;;;;;;;;5118167;28;20100;-86
2023/03/30 05:47:06;;;;;;;17.67;9.88;;;;;;;;;;5118422;28;20024;-87
2023/03/30 05:49:32;;;;;;;18.17;10.35;;;;;;;;;;5100178;28;20456;-87
2023/03/30 05:51:58;;;;;;;17.55;11.13;;;;;;;;;;5118431;28;20040;-87
2023/03/30 05:54:26;;;;;;;18.83;10.63;;;;;;;;;;5099823;28;20024;-86
2023/03/30 05:56:52;;;;;;;15.93;9.70;;;;;;;;;;5100084;28;20031;-86
2023/03/30 05:59:18;;;;;;;20.65;10.02;;;;;;;;;;5100154;28;20028;-89
2023/03/30 06:01:45;;;;;;;15.63;9.95;;;;;;;;;;5118346;28;20020;-87
2023/03/30 06:04:11;;;;;;;20.75;10.50;;;;;;;;;;5118206;28;20016;-86
2023/03/30 06:06:37;;;;;;;16.02;10.43;;;;;;;;;;5118108;28;20026;-87
2023/03/30 06:09:04;;;;;;;19.85;10.32;;;;;;;;;;5118166;28;20402;-87
2023/03/30 06:11:50;;;;;;;17.60;10.48;;;;;;;;;;5118171;28;20035;-87
2023/03/30 06:14:16;;;;;;;19.00;10.38;;;;;;;;;;5117891;28;20030;-87
2023/03/30 06:16:42;;;;;;;18.30;10.88;;;;;;;;;;5099295;28;20047;-86
2023/03/30 06:19:09;;;;;;;18.20;11.13;;;;;;;;;;5118097;28;20043;-86
2023/03/30 06:21:35;;;;;;;18.15;11.73;;;;;;;;;;5100274;28;20352;-87
2023/03/30 06:24:02;;;;;;;19.80;11.05;;;;;;;;;;5099856;28;20020;-86
2023/03/30 06:35:38;;;;;;;23.10;12.40;;;;;;;;;;5117924;28;20035;-87
2023/03/30 06:38:04;;;;;;;21.75;11.18;;;;;;;;;;5117766;28;20065;-86
2023/03/30 06:40:30;;;;;;;22.00;10.85;;;;;;;;;;5117570;28;20028;-86
2023/03/30 06:43:16;;;;;;;19.77;10.40;;;;;;;;;;5099150;28;20039;-87
2023/03/30 06:45:43;;;;;;;19.38;11.18;;;;;;;;;;5117546;28;20036;-86
2023/03/30 06:48:09;;;;;;;18.40;10.88;;;;;;;;;;5099154;28;20032;-86
2023/03/30 06:50:35;;;;;;;19.73;10.40;;;;;;;;;;5099619;28;20152;-86
2023/03/30 06:53:03;;;;;;;21.45;10.43;;;;;;;;;;5117749;28;20016;-86
2023/03/30 06:55:29;;;;;;;19.02;10.98;;;;;;;;;;5117910;28;20038;-86
2023/03/30 06:57:55;;;;;;;22.35;10.50;;;;;;;;;;5117361;28;20016;-86
2023/03/30 07:00:22;;;;;;;16.73;9.90;;;;;;;;;;5099419;28;20031;-86
2023/03/30 07:02:48;;;;;;;17.67;9.93;;;;;;;;;;5117856;28;20305;-85
2023/03/30 07:05:14;;;;;;;18.05;9.95;;;;;;;;;;5099607;28;20419;-86
2023/03/30 07:07:41;;;;;;;19.52;9.52;;;;;;;;;;5120649;28;20061;-86
2023/03/30 07:10:10;;;;;;;16.20;10.05;;;;;;;;;;5102437;28;20032;-86
2023/03/30 07:12:55;;;;;;;16.25;8.68;;;;;;;;;;5120838;28;20031;-86
2023/03/30 07:15:21;;;;;;;20.55;9.52;;;;;;;;;;5102253;28;20126;-85
2023/03/30 07:17:47;;;;;;;33.25;12.77;;;;;;;;;;5120917;28;20031;-85
2023/03/30 07:20:16;;;;;;;16.35;9.13;;;;;;;;;;5121097;28;20031;-86
2023/03/30 07:22:42;;;;;;;15.60;8.95;;;;;;;;;;5120899;28;20047;-85
2023/03/30 07:25:09;;;;;;;17.23;8.57;;;;;;;;;;5102153;28;20032;-86
2023/03/30 07:27:36;;;;;;;13.63;7.60;;;;;;;;;;5102758;28;20122;-86
2023/03/30 07:30:04;;;;;;;17.25;8.23;;;;;;;;;;5121050;28;20031;-86
2023/03/30 07:32:30;;;;;;;18.70;8.63;;;;;;;;;;5120504;28;20409;-86
2023/03/30 07:34:57;;;;;;;18.75;10.75;;;;;;;;;;5120533;28;20031;-84
2023/03/30 07:37:23;;;;;;;25.33;11.80;;;;;;;;;;5120361;28;20425;-85
2023/03/30 07:39:49;;;;;;;14.55;8.20;;;;;;;;;;5120258;28;20035;-87
2023/03/30 07:42:37;;;;;;;14.18;8.18;;;;;;;;;;5101935;28;20032;-84
2023/03/30 07:45:03;;;;;;;17.83;8.55;;;;;;;;;;5119993;28;20437;-85
2023/03/30 07:47:30;;;;;;;12.70;8.00;;;;;;;;;;5102374;28;20325;-87
2023/03/30 07:49:56;;;;;;;17.88;8.82;;;;;;;;;;5102360;28;20039;-87
2023/03/30 07:52:22;;;;;;;14.68;9.38;;;;;;;;;;5120767;28;20034;-87
2023/03/30 07:54:48;;;;;;;16.58;8.45;;;;;;;;;;5102272;28;20027;-87
2023/03/30 07:57:14;;;;;;;14.52;7.70;;;;;;;;;;5102348;28;20023;-87
2023/03/30 07:59:40;;;;;;;12.70;7.70;;;;;;;;;;5101830;28;20036;-87
2023/03/30 08:02:06;;;;;;;16.42;8.77;;;;;;;;;;5101362;28;20444;-87
2023/03/30 08:04:32;;;;;;;13.30;7.50;;;;;;;;;;5119997;28;20088;-87
2023/03/30 08:07:00;;;;;;;15.90;8.82;;;;;;;;;;5102424;28;20058;-87
2023/03/30 08:09:26;;;;;;;17.52;7.70;;;;;;;;;;5101979;28;20026;-87
2023/03/30 08:18:03;;;;;;;16.23;7.47;;;;;;;;;;5119600;28;20026;-87
2023/03/30 08:20:29;;;;;;;14.73;7.57;;;;;;;;;;5119757;28;20076;-88
2023/03/30 08:22:55;;;;;;;13.95;7.55;;;;;;;;;;5101766;28;20020;-87
2023/03/30 08:25:21;;;;;;;13.90;7.25;;;;;;;;;;5101696;28;20020;-87
2023/03/30 08:27:48;;;;;;;17.40;8.25;;;;;;;;;;5101115;28;20032;-87
2023/03/30 08:30:15;;;;;;;15.75;8.48;;;;;;;;;;5119474;28;20027;-87
2023/03/30 08:32:41;;;;;;;18.60;8.75;;;;;;;;;;5119779;28;20028;-87
2023/03/30 08:35:07;;;;;;;15.90;8.23;;;;;;;;;;5100958;28;20039;-87
2023/03/30 08:37:33;;;;;;;12.40;6.97;;;;;;;;;;5101626;28;20027;-87
2023/03/30 08:40:00;;;;;;;14.43;6.90;;;;;;;;;;5119263;28;20071;-87
2023/03/30 08:45:49;;;;;;;13.82;7.38;;;;;;;;;;5100316;28;20093;-86
2023/03/30 08:48:20;;;;;;;10.45;5.90;;;;;;;;;;5118890;28;20318;-87
2023/03/30 08:50:52;;;;;;;11.00;5.72;;;;;;;;;;5119417;28;20321;-86
2023/03/30 08:53:18;;;;;;;14.25;5.85;;;;;;;;;;5119443;28;20012;-86
2023/03/30 08:55:49;;;;;;;12.85;6.68;;;;;;;;;;5119273;28;20313;-86
2023/03/30 09:01:50;;;;;;;12.20;5.70;;;;;;;;;;5119141;28;20123;-86
2023/03/30 09:04:22;;;;;;;11.10;5.68;;;;;;;;;;5118947;28;20024;-87
2023/03/30 09:06:52;;;;;;;16.67;6.43;;;;;;;;;;5100924;28;20019;-87
2023/03/30 09:09:19;;;;;;;11.43;6.10;;;;;;;;;;5100881;28;20110;-87
2023/03/30 09:11:46;;;;;;;10.75;5.93;;;;;;;;;;5119115;28;20035;-86
2023/03/30 09:14:26;;;;;;;11.43;5.80;;;;;;;;;;5118882;28;20024;-86
2023/03/30 09:17:03;;;;;;;13.13;6.18;;;;;;;;;;5100102;28;20074;-86
2023/03/30 09:19:34;;;;;;;11.25;5.45;;;;;;;;;;5118975;28;20409;-87
2023/03/30 09:22:01;;;;;;;17.70;6.13;;;;;;;;;;5118570;28;20027;-87
2023/03/30 09:24:28;;;;;;;16.17;6.10;;;;;;;;;;5118792;28;20046;-86
2023/03/30 09:27:31;;;;;;;10.85;5.85;;;;;;;;;;5100595;28;20023;-86
2023/03/30 09:30:05;;;;;;;17.75;6.65;;;;;;;;;;5117752;28;20023;-86
2023/03/30 09:32:32;;;;;;;13.77;6.05;;;;;;;;;;5118643;28;20111;-86
2023/03/30 09:35:02;;;;;;;17.33;7.00;;;;;;;;;;5118435;28;20019;-86
2023/03/30 09:37:28;;;;;;;19.83;9.27;;;;;;;;;;5118581;28;20417;-86
2023/03/30 09:39:57;;;;;;;19.85;10.38;;;;;;;;;;5100217;28;20035;-86
2023/03/30 09:42:38;;;;;;;19.77;7.40;;;;;;;;;;5118434;28;20429;-86
2023/03/30 09:45:22;;;;;;;16.38;6.68;;;;;;;;;;5118252;28;20430;-86
2023/03/30 09:47:48;;;;;;;9.55;5.43;;;;;;;;;;5100089;28;20036;-87
2023/03/30 09:50:18;;;;;;;17.77;8.23;;;;;;;;;;5118031;28;20019;-87
2023/03/30 09:52:59;;;;;;;14.90;6.63;;;;;;;;;;5118106;28;20039;-87
2023/03/30 09:55:27;;;;;;;12.48;6.93;;;;;;;;;;5117924;28;20028;-87
2023/03/30 10:04:16;;;;;;;12.68;5.55;;;;;;;;;;5117355;28;20027;-86
2023/03/30 10:06:47;;;;;;;11.00;4.75;;;;;;;;;;5117858;28;20062;-87
2023/03/30 10:09:13;;;;;;;12.77;6.18;;;;;;;;;;5117981;28;20073;-86
2023/03/30 10:11:44;;;;;;;9.95;5.35;;;;;;;;;;5098986;28;20044;-87
2023/03/30 10:14:30;;;;;;;12.40;6.28;;;;;;;;;;5099336;28;20055;-86
2023/03/30 10:16:57;;;;;;;10.95;5.03;;;;;;;;;;5109963;28;20068;-86
2023/03/30 10:19:24;;;;;;;12.38;6.10;;;;;;;;;;5117656;28;20062;-86
2023/03/30 10:21:56;;;;;;;15.70;6.68;;;;;;;;;;5117404;28;20517;-90
2023/03/30 10:24:23;;;;;;;16.35;5.88;;;;;;;;;;5117661;28;20027;-89
2023/03/30 10:27:04;;;;;;;14.18;5.15;;;;;;;;;;5117819;28;20020;-88
2023/03/30 10:29:31;;;;;;;9.75;3.78;;;;;;;;;;5118100;28;20416;-88
2023/03/30 10:32:11;;;;;;;14.52;4.38;;;;;;;;;;5123682;28;20047;-89
2023/03/30 10:34:39;;;;;;;11.73;5.05;;;;;;;;;;5117841;28;20114;-88
2023/03/30 10:37:08;;;;;;;10.32;4.95;;;;;;;;;;5117921;28;20325;-90
2023/03/30 10:39:35;;;;;;;16.38;8.35;;;;;;;;;;5099957;28;20060;-88
2023/03/30 10:45:06;;;;;;;8.25;4.32;;;;;;;;;;5121871;28;20096;-88
2023/03/30 10:47:32;;;;;;;47.53;24.92;;;;;;;;;;5103486;28;20036;-89
2023/03/30 10:50:13;;;;;;;10.85;4.57;;;;;;;;;;5103607;28;20031;-88
2023/03/30 10:52:49;;;;;;;7.63;4.32;;;;;;;;;;5103724;28;20020;-90
2023/03/30 10:55:20;;;;;;;9.80;3.80;;;;;;;;;;5103256;28;20032;-90
2023/03/30 10:57:46;;;;;;;10.23;3.90;;;;;;;;;;5121261;28;20110;-90
2023/03/30 11:00:13;;;;;;;16.58;6.75;;;;;;;;;;5121339;28;20326;-89
2023/03/30 11:02:48;;;;;;;16.63;6.55;;;;;;;;;;5121163;28;20100;-90
2023/03/30 11:05:32;;;;;;;8.10;3.92;;;;;;;;;;5103130;28;20035;-88
2023/03/30 11:08:11;;;;;;;8.90;3.15;;;;;;;;;;5121283;28;20103;-89
2023/03/30 11:10:37;;;;;;;14.13;5.63;;;;;;;;;;5103254;28;20333;-88
2023/03/30 11:16:28;;;;;;;52.50;20.90;;;;;;;;;;5121433;28;20027;-89
2023/03/30 11:19:06;;;;;;;20.15;9.30;;;;;;;;;;5120893;28;20072;-88
2023/03/30 11:21:36;;;;;;;15.88;7.57;;;;;;;;;;5120717;28;20023;-89
2023/03/30 11:24:12;;;;;;;20.80;9.50;;;;;;;;;;5102457;28;20417;-89
2023/03/30 11:26:39;;;;;;;16.88;8.05;;;;;;;;;;5120970;28;20042;-89
2023/03/30 11:29:16;;;;;;;11.02;5.90;;;;;;;;;;5121001;28;20038;-88
2023/03/30 11:31:48;;;;;;;15.77;5.22;;;;;;;;;;5120691;28;20032;-88
2023/03/30 11:34:16;;;;;;;15.45;6.53;;;;;;;;;;5102814;28;20020;-88
2023/03/30 11:37:08;;;;;;;53.00;21.10;;;;;;;;;;5120954;28;20090;-89
2023/03/30 11:39:37;;;;;;;22.75;9.45;;;;;;;;;;5018470;28;20037;-89
2023/03/30 11:42:21;;;;;;;14.90;5.93;;;;;;;;;;5018285;28;20042;-88
2023/03/30 11:44:47;;;;;;;11.18;4.47;;;;;;;;;;5018579;28;20076;-88
2023/03/30 11:47:24;;;;;;;19.25;8.25;;;;;;;;;;5018205;28;20156;-89
2023/03/30 11:50:01;;;;;;;11.10;4.57;;;;;;;;;;5018455;28;20036;-88
2023/03/30 11:52:30;;;;;;;25.90;11.65;;;;;;;;;;5017673;28;20102;-89
2023/03/30 11:55:09;;;;;;;33.08;11.63;;;;;;;;;;5018187;28;20075;-89
2023/03/30 12:00:39;;;;;;;18.98;8.45;;;;;;;;;;5018359;28;20045;-88
2023/03/30 12:03:11;;;;;;;10.32;4.35;;;;;;;;;;5001768;28;20038;-89
2023/03/30 12:05:40;;;;;;;;;;;;;;;;;;5002250;28;20105;-86
2023/03/30 12:08:14;;;;;;;13.60;7.03;;;;;;;;;;5018093;28;19928;-89
2023/03/30 12:10:41;;;;;;;13.50;7.03;;;;;;;;;;5017940;28;20049;-90
2023/03/30 12:16:15;;;;;;;11.55;4.88;;;;;;;;;;5058918;28;20065;-89
2023/03/30 12:18:59;;;;;;;12.02;5.03;;;;;;;;;;5120075;28;20027;-88
2023/03/30 12:21:31;;;;;;;11.63;5.57;;;;;;;;;;5119885;28;20068;-89
2023/03/30 12:24:20;;;;;;;14.70;6.05;;;;;;;;;;5101861;28;20020;-90
2023/03/30 12:30:14;;;;;;;11.57;5.72;;;;;;;;;;5017967;28;20099;-89
2023/03/30 12:32:56;;;;;;;11.65;4.68;;;;;;;;;;5001210;28;20038;-90
2023/03/30 12:35:22;;;;;;;;;;;;;;;;;;5018009;28;20026;-89
2023/03/30 12:37:48;;;;;;;12.18;5.05;;;;;;;;;;5017557;28;19905;-89
2023/03/30 12:40:19;;;;;;;13.80;5.35;;;;;;;;;;5017569;28;20136;-89
2023/03/30 12:43:08;;;;;;;11.02;5.60;;;;;;;;;;5017322;28;20085;-90
2023/03/30 12:45:36;;;;;;;7.72;4.60;;;;;;;;;;4983961;28;20034;-88
2023/03/30 12:48:14;;;;;;;7.35;4.63;;;;;;;;;;4997528;28;20054;-88
2023/03/30 12:50:40;;;;;;;14.25;5.15;;;;;;;;;;4997825;28;20034;-89
2023/03/30 12:53:13;;;;;;;8.02;4.25;;;;;;;;;;4997776;28;20033;-89
2023/03/30 12:55:57;;;;;;;12.07;5.07;;;;;;;;;;5013982;28;20524;-89
2023/03/30 12:58:38;;;;;;;11.50;4.35;;;;;;;;;;4997399;28;20071;-89
2023/03/30 13:01:15;;;;;;;24.37;12.77;;;;;;;;;;5013842;28;20060;-89
2023/03/30 13:03:48;;;;;;;9.27;4.30;;;;;;;;;;5044805;28;20032;-89
2023/03/30 13:06:20;;;;;;;13.63;6.18;;;;;;;;;;5080730;28;20109;-89
2023/03/30 13:08:46;;;;;;;10.45;4.85;;;;;;;;;;5080716;28;20020;-89
2023/03/30 13:11:17;;;;;;;10.32;5.45;;;;;;;;;;5098499;28;20162;-88
2023/03/30 13:16:50;;;;;;;10.95;6.40;;;;;;;;;;5098591;28;20057;-88
2023/03/30 13:19:40;;;;;;;17.33;9.38;;;;;;;;;;5080451;28;20024;-89
2023/03/30 13:22:17;;;;;;;12.18;4.60;;;;;;;;;;5093842;28;20038;-88
2023/03/30 13:24:43;;;;;;;17.02;8.38;;;;;;;;;;5098201;28;20299;-88
2023/03/30 13:30:29;;;;;;;22.73;13.57;;;;;;;;;;5098248;28;20150;-89
2023/03/30 13:33:10;;;;;;;17.83;10.93;;;;;;;;;;5079698;28;20032;-88
2023/03/30 13:35:36;;;;;;;30.40;19.92;;;;;;;;;;5097857;28;20036;-88
2023/03/30 13:38:05;;;;;;;21.05;14.52;;;;;;;;;;5098159;28;20026;-88
2023/03/30 13:40:54;;;;;;;10.80;6.10;;;;;;;;;;5079670;28;20036;-88
2023/03/30 13:44:12;;;;;;;16.33;7.35;;;;;;;;;;5016436;28;20104;-89
2023/03/30 13:46:44;;;;;;;17.15;10.60;;;;;;;;;;5016297;28;20042;-89
2023/03/30 13:49:19;;;;;;;11.60;6.35;;;;;;;;;;4999630;28;20072;-89
2023/03/30 13:51:46;;;;;;;6.70;5.03;;;;;;;;;;5000013;28;20113;-88
2023/03/30 13:54:31;;;;;;;14.02;7.40;;;;;;;;;;4999878;28;20049;-88
2023/03/30 13:57:00;;;;;;;11.30;5.68;;;;;;;;;;4999914;28;20026;-89
2023/03/30 13:59:29;;;;;;;15.18;10.38;;;;;;;;;;5016255;28;20025;-88
2023/03/30 14:01:56;;;;;;;12.85;6.22;;;;;;;;;;5016169;28;20045;-88
2023/03/30 14:04:22;;;;;;;9.70;5.70;;;;;;;;;;4999826;28;20467;-89
2023/03/30 14:06:51;;;;;;;9.07;3.88;;;;;;;;;;5016461;28;20039;-89
2023/03/30 14:09:25;;;;;;;11.82;5.90;;;;;;;;;;4999767;28;20022;-88
2023/03/30 14:11:53;;;;;;;29.80;18.27;;;;;;;;;;5016227;28;20407;-88
2023/03/30 14:14:21;;;;;;;25.67;15.98;;;;;;;;;;5016164;28;20038;-88
2023/03/30 14:16:49;;;;;;;25.88;15.25;;;;;;;;;;5019756;28;20113;-88
2023/03/30 14:19:15;;;;;;;14.40;6.57;;;;;;;;;;5024571;28;20026;-90
2023/03/30 14:21:45;;;;;;;12.57;4.65;;;;;;;;;;5101574;28;20036;-89
2023/03/30 14:24:16;;;;;;;13.85;7.55;;;;;;;;;;5101668;28;20020;-89
2023/03/30 14:26:43;;;;;;;7.88;3.95;;;;;;;;;;5083722;28;20400;-90
2023/03/30 14:29:20;;;;;;;7.38;3.92;;;;;;;;;;5101875;28;20024;-88
2023/03/30 14:31:50;;;;;;;9.35;4.20;;;;;;;;;;5083698;28;20437;-90
2023/03/30 14:34:23;;;;;;;11.50;4.15;;;;;;;;;;5083682;28;20028;-89
2023/03/30 14:36:49;;;;;;;11.55;3.97;;;;;;;;;;5083622;28;20110;-89
2023/03/30 14:39:17;;;;;;;9.90;4.05;;;;;;;;;;5101197;28;20089;-89
2023/03/30 14:41:43;;;;;;;7.68;3.80;;;;;;;;;;5083254;28;20032;-89
2023/03/30 14:47:13;;;;;;;10.68;4.63;;;;;;;;;;5094491;28;20039;-88
2023/03/30 14:49:42;;;;;;;10.93;5.45;;;;;;;;;;5101420;28;20406;-90
2023/03/30 14:52:16;;;;;;;9.63;4.55;;;;;;;;;;5083287;28;20051;-90
2023/03/30 14:54:43;;;;;;;10.18;5.13;;;;;;;;;;5082918;28;20059;-89
2023/03/30 14:57:10;;;;;;;15.38;6.70;;;;;;;;;;5100844;28;20024;-89
2023/03/30 14:59:45;;;;;;;16.35;9.55;;;;;;;;;;5083068;28;20032;-88
2023/03/30 15:02:21;;;;;;;21.77;7.30;;;;;;;;;;5083439;28;20056;-88
2023/03/30 15:04:49;;;;;;;24.42;9.65;;;;;;;;;;5101113;28;20040;-89
2023/03/30 15:07:15;;;;;;;17.73;4.05;;;;;;;;;;5101171;28;20024;-89
2023/03/30 15:09:45;;;;;;;7.82;3.33;;;;;;;;;;5101145;28;20024;-89
2023/03/30 15:12:15;;;;;;;10.93;3.95;;;;;;;;;;5100985;28;20039;-89
2023/03/30 15:17:47;;;;;;;11.15;4.00;;;;;;;;;;5100895;28;20055;-89
2023/03/30 15:20:13;;;;;;;8.73;2.70;;;;;;;;;;5101028;28;20322;-89
2023/03/30 15:22:41;;;;;;;15.38;4.15;;;;;;;;;;5082997;28;20089;-89
2023/03/30 15:25:11;;;;;;;20.55;4.40;;;;;;;;;;5100414;28;20031;-90
2023/03/30 15:28:11;;;;;;;10.55;3.25;;;;;;;;;;5099520;28;20064;-91
2023/03/30 15:30:38;;;;;;;13.38;4.05;;;;;;;;;;5100340;28;20020;-89
2023/03/30 15:33:06;;;;;;;10.88;4.05;;;;;;;;;;5100652;28;20028;-90
2023/03/30 15:35:34;;;;;;;10.15;3.53;;;;;;;;;;5082558;28;20052;-88
2023/03/30 15:38:04;;;;;;;13.25;4.70;;;;;;;;;;5082194;28;20035;-89
2023/03/30 15:40:36;;;;;;;14.07;5.95;;;;;;;;;;5100123;28;20051;-88
2023/03/30 15:46:13;;;;;;;10.52;4.93;;;;;;;;;;5100312;28;20065;-89
2023/03/30 15:48:41;;;;;;;8.80;5.15;;;;;;;;;;5081896;28;20470;-89
2023/03/30 15:51:10;;;;;;;11.50;5.25;;;;;;;;;;5081881;28;20452;-89
2023/03/30 15:53:46;;;;;;;12.40;5.15;;;;;;;;;;5081955;28;20024;-88
2023/03/30 15:56:17;;;;;;;18.17;7.10;;;;;;;;;;5099878;28;20047;-88
2023/03/30 16:02:07;;;;;;;25.58;15.13;;;;;;;;;;5099999;28;20035;-89